East Middlebury, Vermont
Current Conditions -  °F | °C
As of 5:35 PM on Monday 26 Jan 2015 (Local Time) from K6B0 Reporting Station
Overcast Overcast  
Wind Chill:   Ceiling: 7000
Heat Index: 11°   Visibility: 10mi
Dew Point:   Wind: 8mph
Humidity: 66%   Direction: 360°N
Pressure: 30.06"   Gusts: NA
Location:  43.97°N, 73.11°W
Report Text: K6B0 262235Z AUTO 36007KT 10SM OVC070 M11/M17 A3006 RMK AO2 T11151168
Loading
Personal Weather Stations






























Interactive Weather Map New forecast layout! Learn more

10-Day Weather Forecast

Advertisements
Track Severe Weather on mobile